createdAt,value
2018-01-31T01:52:33.251Z,6.63
2018-01-31T01:54:59.440Z,6.30
2018-01-31T01:57:25.667Z,5.20
2018-01-31T01:59:51.855Z,5.47
2018-01-31T02:02:18.046Z,5.87
2018-01-31T02:04:44.251Z,5.30
2018-01-31T02:07:10.456Z,6.43
2018-01-31T02:09:36.684Z,5.83
2018-01-31T02:12:04.302Z,6.27
2018-01-31T02:14:30.932Z,5.97
2018-01-31T02:16:57.138Z,6.87
2018-01-31T02:19:23.912Z,6.27
2018-01-31T02:21:51.268Z,6.10
2018-01-31T02:24:18.240Z,5.60
2018-01-31T02:26:44.420Z,5.80
2018-01-31T02:29:10.636Z,6.90
2018-01-31T02:31:36.825Z,5.80
2018-01-31T02:34:03.048Z,5.97
2018-01-31T02:36:29.236Z,6.67
2018-01-31T02:39:07.940Z,5.30
2018-01-31T02:41:34.124Z,6.60
2018-01-31T02:44:01.111Z,5.87
2018-01-31T02:46:27.296Z,4.70
2018-01-31T02:48:53.516Z,6.10
2018-01-31T02:51:19.704Z,6.10
2018-01-31T02:53:45.959Z,5.77
2018-01-31T02:56:12.152Z,5.60
2018-01-31T02:58:38.335Z,5.30
2018-01-31T03:01:04.559Z,6.47
2018-01-31T03:03:30.762Z,6.83
2018-01-31T03:05:56.980Z,6.53
2018-01-31T03:08:23.192Z,6.03
2018-01-31T03:10:49.468Z,6.23
2018-01-31T03:13:15.689Z,5.80
2018-01-31T03:15:41.925Z,6.57
2018-01-31T03:18:08.103Z,6.77
2018-01-31T03:20:35.051Z,7.33
2018-01-31T03:23:01.974Z,6.47
2018-01-31T03:25:28.251Z,5.97
2018-01-31T03:27:54.435Z,8.93
2018-01-31T03:30:20.832Z,7.90
2018-01-31T03:32:47.056Z,6.73
2018-01-31T03:35:13.236Z,7.37
2018-01-31T03:37:40.183Z,6.20
2018-01-31T03:40:07.144Z,6.60
2018-01-31T03:42:33.382Z,6.53
2018-01-31T03:44:59.571Z,6.03
2018-01-31T03:47:25.788Z,8.07
2018-01-31T03:49:51.976Z,7.07
2018-01-31T03:52:18.200Z,5.97
2018-01-31T03:54:44.378Z,6.80
2018-01-31T03:57:10.587Z,6.43
2018-01-31T03:59:36.771Z,7.67
2018-01-31T04:02:02.983Z,7.17
2018-01-31T04:04:29.912Z,6.80
2018-01-31T04:06:56.864Z,7.60
2018-01-31T04:09:23.047Z,6.80
2018-01-31T04:11:49.259Z,7.00
2018-01-31T04:14:15.471Z,6.97
2018-01-31T04:16:42.428Z,7.60
2018-01-31T04:19:08.611Z,7.27
2018-01-31T04:21:34.824Z,7.00
2018-01-31T04:24:01.008Z,6.97
2018-01-31T04:26:27.240Z,7.27
2018-01-31T04:28:54.180Z,7.40
2018-01-31T04:31:21.108Z,7.43
2018-01-31T04:33:48.064Z,7.07
2018-01-31T04:36:15.049Z,7.40
2018-01-31T04:38:41.263Z,6.23
2018-01-31T04:41:07.453Z,6.90
2018-01-31T04:43:34.468Z,6.93
2018-01-31T04:46:00.656Z,7.03
2018-01-31T04:48:27.210Z,6.23
2018-01-31T04:50:53.458Z,6.97
2018-01-31T04:53:19.675Z,6.40
2018-01-31T04:55:45.900Z,7.00
2018-01-31T04:58:12.116Z,7.10
2018-01-31T05:00:38.295Z,7.10
2018-01-31T05:03:04.513Z,7.53
2018-01-31T05:05:30.699Z,7.30
2018-01-31T05:07:56.917Z,7.47
2018-01-31T05:10:23.845Z,6.83
2018-01-31T05:12:50.832Z,7.43
2018-01-31T05:15:17.016Z,8.10
2018-01-31T05:17:43.223Z,8.33
2018-01-31T05:20:09.443Z,7.47
2018-01-31T05:22:35.654Z,6.90
2018-01-31T05:25:01.841Z,6.90
2018-01-31T05:27:28.094Z,7.57
2018-01-31T05:29:54.276Z,8.63
2018-01-31T05:32:20.484Z,7.40
2018-01-31T05:34:46.663Z,8.33
2018-01-31T05:37:13.624Z,8.50
2018-01-31T05:39:39.813Z,8.37
2018-01-31T05:42:06.142Z,8.10
2018-01-31T05:44:32.328Z,8.07
2018-01-31T05:46:58.515Z,7.80
2018-01-31T05:49:25.471Z,7.10
2018-01-31T05:51:52.400Z,7.90
2018-01-31T05:54:19.351Z,8.30
2018-01-31T05:56:46.275Z,8.13
2018-01-31T05:59:12.489Z,8.00
2018-01-31T06:01:38.671Z,7.83
2018-01-31T06:04:04.884Z,8.17
2018-01-31T06:06:31.807Z,7.23
2018-01-31T06:08:58.020Z,8.30
2018-01-31T06:11:24.210Z,7.50
2018-01-31T06:13:50.521Z,6.57
2018-01-31T06:16:17.453Z,8.27
2018-01-31T06:18:43.668Z,7.23
2018-01-31T06:21:09.851Z,10.40
2018-01-31T06:23:36.059Z,6.83
2018-01-31T06:26:03.084Z,8.27
2018-01-31T06:28:29.284Z,6.20
2018-01-31T06:30:55.468Z,10.00
2018-01-31T06:33:21.703Z,5.10
2018-01-31T06:35:47.889Z,9.63
2018-01-31T06:38:14.105Z,9.30
2018-01-31T06:40:40.292Z,10.63
2018-01-31T06:43:06.515Z,7.70
2018-01-31T06:45:32.695Z,8.90
2018-01-31T06:47:58.915Z,7.03
2018-01-31T06:50:25.101Z,8.17
2018-01-31T06:52:51.348Z,10.17
2018-01-31T06:55:17.532Z,10.47
2018-01-31T06:57:44.475Z,7.10
2018-01-31T07:00:10.746Z,8.63
2018-01-31T07:02:37.695Z,7.93
2018-01-31T07:05:03.884Z,11.40
2018-01-31T07:07:30.815Z,10.93
2018-01-31T07:09:57.032Z,10.17
2018-01-31T07:12:23.299Z,11.87
2018-01-31T07:14:50.243Z,10.73
2018-01-31T07:17:17.163Z,10.03
2018-01-31T07:19:43.435Z,9.57
2018-01-31T07:22:09.626Z,10.77
2018-01-31T07:24:35.844Z,10.80
2018-01-31T07:27:02.810Z,8.60
2018-01-31T07:29:29.028Z,11.10
2018-01-31T07:31:55.207Z,12.13
2018-01-31T07:34:21.420Z,11.53
2018-01-31T07:36:47.603Z,10.00
2018-01-31T07:39:13.816Z,11.67
2018-01-31T07:41:39.996Z,10.80
2018-01-31T07:44:07.299Z,11.43
2018-01-31T07:46:33.531Z,9.40
2018-01-31T07:48:59.715Z,8.90
2018-01-31T07:51:25.927Z,10.37
2018-01-31T07:53:52.864Z,12.10
2018-01-31T07:56:19.090Z,8.83
2018-01-31T07:58:45.376Z,9.77
2018-01-31T08:01:11.586Z,10.20
2018-01-31T08:03:37.771Z,8.27
2018-01-31T08:06:03.980Z,10.63
2018-01-31T08:08:30.164Z,10.27
2018-01-31T08:10:57.177Z,11.20
2018-01-31T08:13:23.396Z,10.50
2018-01-31T08:15:49.736Z,9.27
2018-01-31T08:18:15.923Z,8.73
2018-01-31T08:20:42.111Z,9.10
2018-01-31T08:23:09.068Z,8.87
2018-01-31T08:25:35.983Z,8.03
2018-01-31T08:28:02.196Z,6.03
2018-01-31T08:30:28.412Z,7.60
2018-01-31T08:32:54.619Z,6.37
2018-01-31T08:35:20.799Z,4.07
2018-01-31T08:37:47.013Z,5.40
2018-01-31T08:40:13.259Z,5.50
2018-01-31T08:42:39.476Z,5.40
2018-01-31T08:45:05.672Z,4.33
2018-01-31T08:47:31.891Z,6.13
2018-01-31T08:49:58.132Z,4.23
2018-01-31T08:52:24.356Z,5.60
2018-01-31T08:54:50.547Z,4.03
2018-01-31T08:57:17.507Z,3.90
2018-01-31T08:59:44.436Z,5.23
2018-01-31T09:02:11.736Z,3.60
2018-01-31T09:04:37.915Z,5.27
2018-01-31T09:07:04.102Z,3.50
2018-01-31T09:09:30.311Z,6.73
2018-01-31T09:11:56.496Z,3.87
2018-01-31T09:14:22.794Z,5.27
2018-01-31T09:16:48.989Z,3.63
2018-01-31T09:19:15.199Z,4.70
2018-01-31T09:21:42.136Z,3.97
2018-01-31T09:24:09.096Z,4.60
2018-01-31T09:26:36.015Z,4.23
2018-01-31T09:29:02.232Z,3.73
2018-01-31T09:31:28.436Z,3.83
2018-01-31T09:33:54.648Z,3.87
2018-01-31T09:36:20.836Z,2.70
2018-01-31T09:38:47.815Z,4.77
2018-01-31T09:41:14.004Z,4.27
2018-01-31T09:43:40.215Z,4.23
2018-01-31T09:46:07.180Z,3.90
2018-01-31T09:48:33.395Z,3.20
2018-01-31T09:50:59.583Z,3.80
2018-01-31T09:53:25.808Z,2.90
2018-01-31T09:55:52.004Z,4.27
2018-01-31T09:58:18.989Z,4.10
2018-01-31T10:00:45.186Z,2.93
2018-01-31T10:03:12.300Z,4.10
2018-01-31T10:05:38.515Z,3.17
2018-01-31T10:08:04.720Z,2.40
2018-01-31T10:10:30.932Z,4.30
2018-01-31T10:12:57.878Z,4.03
2018-01-31T10:15:24.831Z,3.53
2018-01-31T10:17:51.016Z,3.60
2018-01-31T10:20:17.519Z,4.20
2018-01-31T10:22:43.707Z,2.83
2018-01-31T10:25:10.675Z,3.50
2018-01-31T10:27:36.867Z,3.00
2018-01-31T10:30:03.074Z,2.80
2018-01-31T10:32:29.293Z,1.77
2018-01-31T10:34:56.479Z,2.30
2018-01-31T10:37:22.667Z,2.13
2018-01-31T10:39:48.856Z,2.30
2018-01-31T10:42:15.816Z,2.27
2018-01-31T10:44:42.008Z,2.20
2018-01-31T10:47:08.223Z,1.60
2018-01-31T10:49:34.407Z,1.83
2018-01-31T10:52:00.625Z,1.57
2018-01-31T10:59:19.348Z,1.40
2018-01-31T11:01:45.539Z,1.27
2018-01-31T11:04:12.496Z,0.93
2018-01-31T11:06:38.675Z,1.30
2018-01-31T11:09:04.895Z,1.30
2018-01-31T11:11:31.084Z,1.30
2018-01-31T11:13:57.631Z,1.03
2018-01-31T11:16:23.816Z,1.10
2018-01-31T11:18:50.776Z,1.27
2018-01-31T11:21:17.704Z,1.43
2018-01-31T11:23:43.920Z,0.93
2018-01-31T11:26:10.107Z,1.30
2018-01-31T11:28:36.318Z,1.40
2018-01-31T11:31:02.539Z,1.40
2018-01-31T11:33:29.504Z,1.47
2018-01-31T11:35:55.688Z,1.30
2018-01-31T11:38:21.963Z,0.97
2018-01-31T11:40:48.139Z,1.33
2018-01-31T11:43:14.356Z,1.00
2018-01-31T11:45:40.539Z,0.90
2018-01-31T11:48:06.761Z,0.90
2018-01-31T11:50:32.953Z,0.80
2018-01-31T11:52:59.201Z,1.10
2018-01-31T11:55:25.403Z,1.30
2018-01-31T11:57:51.600Z,1.07
2018-01-31T12:00:17.815Z,0.90
2018-01-31T12:02:44.065Z,0.80
2018-01-31T12:05:10.248Z,0.70
2018-01-31T12:07:37.180Z,0.60
2018-01-31T12:10:03.404Z,1.10
2018-01-31T12:12:41.963Z,0.70
2018-01-31T12:15:20.545Z,0.90
2018-01-31T12:17:46.725Z,0.80
2018-01-31T12:23:25.261Z,1.00
2018-01-31T12:26:03.905Z,1.00
2018-01-31T12:28:39.316Z,0.97
2018-01-31T12:31:18.359Z,0.80
2018-01-31T12:33:56.892Z,0.70
2018-01-31T12:36:35.587Z,1.00
2018-01-31T12:39:01.636Z,1.10
2018-01-31T12:41:27.715Z,1.10
2018-01-31T12:43:54.508Z,0.90
2018-01-31T12:49:33.877Z,1.10
2018-01-31T12:52:27.072Z,0.90
2018-01-31T12:55:01.076Z,0.80
2018-01-31T12:57:30.304Z,0.83
2018-01-31T13:00:08.864Z,0.87
2018-01-31T13:05:56.929Z,0.87
2018-01-31T13:08:35.555Z,0.80
2018-01-31T13:11:14.112Z,1.00
2018-01-31T13:13:49.297Z,0.63
2018-01-31T13:16:27.960Z,0.90
2018-01-31T13:19:07.267Z,1.00
2018-01-31T13:21:45.776Z,0.90
2018-01-31T13:24:24.536Z,0.77
2018-01-31T13:27:03.871Z,1.60
2018-01-31T13:29:30.868Z,0.80
2018-01-31T13:32:09.392Z,0.70
2018-01-31T13:37:59.183Z,0.90
2018-01-31T13:40:37.824Z,0.60
2018-01-31T13:43:16.548Z,0.70
2018-01-31T13:45:55.283Z,0.80
2018-01-31T13:48:27.700Z,0.80
2018-01-31T13:51:06.368Z,0.70
2018-01-31T13:53:44.988Z,0.70
2018-01-31T13:56:23.648Z,0.80
2018-01-31T13:59:02.924Z,0.73
2018-01-31T14:01:41.564Z,0.80
2018-01-31T14:04:20.252Z,0.80
2018-01-31T14:06:58.897Z,1.00
2018-01-31T14:09:37.407Z,0.90
2018-01-31T14:12:16.048Z,0.70
2018-01-31T14:14:55.144Z,0.90
2018-01-31T14:17:33.731Z,1.27
2018-01-31T14:20:13.147Z,0.90
2018-01-31T14:22:51.745Z,1.27
2018-01-31T14:25:30.340Z,1.13
2018-01-31T14:28:09.004Z,0.80
2018-01-31T14:30:47.624Z,1.00
2018-01-31T14:33:26.327Z,0.80
2018-01-31T14:36:05.103Z,1.07
2018-01-31T14:38:31.880Z,0.77
2018-01-31T14:40:57.939Z,0.90
2018-01-31T14:43:24.015Z,1.00
2018-01-31T14:45:50.059Z,1.10
2018-01-31T14:48:16.159Z,0.87
2018-01-31T14:50:42.219Z,0.80
2018-01-31T14:53:08.304Z,0.97
2018-01-31T14:55:34.396Z,1.10
2018-01-31T14:58:00.484Z,1.73
2018-01-31T15:00:26.537Z,1.00
2018-01-31T15:02:52.628Z,0.87
2018-01-31T15:05:18.675Z,0.90
2018-01-31T15:07:44.792Z,1.30
2018-01-31T15:10:10.845Z,1.30
2018-01-31T15:12:36.892Z,1.03
2018-01-31T15:15:03.746Z,1.30
2018-01-31T15:17:29.799Z,1.43
2018-01-31T15:19:55.881Z,1.60
2018-01-31T15:22:22.688Z,1.27
2018-01-31T15:24:48.764Z,2.00
2018-01-31T15:27:14.820Z,1.83
2018-01-31T15:29:40.904Z,1.70
2018-01-31T15:32:07.701Z,1.53
2018-01-31T15:34:33.783Z,1.53
2018-01-31T15:36:59.835Z,1.43
2018-01-31T15:39:25.920Z,1.67
2018-01-31T15:41:52.724Z,1.80
2018-01-31T15:44:18.804Z,1.90
2018-01-31T15:46:44.860Z,1.60
2018-01-31T15:49:10.939Z,1.47
2018-01-31T15:51:37.727Z,1.40
2018-01-31T15:54:03.804Z,1.10
2018-01-31T15:56:30.610Z,1.13
2018-01-31T15:58:56.712Z,1.20
2018-01-31T16:01:22.760Z,1.37
2018-01-31T16:03:48.820Z,1.40
2018-01-31T16:06:15.707Z,1.20
2018-01-31T16:08:41.957Z,1.00
2018-01-31T16:11:08.023Z,1.40
2018-01-31T16:13:34.848Z,1.27
2018-01-31T16:16:00.931Z,1.50
2018-01-31T16:18:39.840Z,1.30
2018-01-31T16:21:18.520Z,1.30
2018-01-31T16:23:44.740Z,1.00
2018-01-31T16:26:10.939Z,1.10
2018-01-31T16:28:49.608Z,1.10
2018-01-31T16:31:17.299Z,1.43
2018-01-31T16:33:44.256Z,1.07
2018-01-31T16:36:12.368Z,1.07
2018-01-31T16:38:38.708Z,1.30
2018-01-31T16:41:05.663Z,1.43
2018-01-31T16:43:31.852Z,0.90
2018-01-31T16:45:58.071Z,1.50
2018-01-31T16:48:24.259Z,1.30
2018-01-31T16:50:50.480Z,1.43
2018-01-31T16:53:16.672Z,1.30
2018-01-31T16:55:42.928Z,1.30
2018-01-31T16:58:09.115Z,1.20
2018-01-31T17:00:35.336Z,1.60
2018-01-31T17:03:01.519Z,1.63
2018-01-31T17:05:27.844Z,1.20
2018-01-31T17:07:54.032Z,1.60
2018-01-31T17:10:20.244Z,1.03
2018-01-31T17:12:46.423Z,1.27
2018-01-31T17:15:12.685Z,1.20
2018-01-31T17:17:39.624Z,0.90
2018-01-31T17:20:05.840Z,1.10
2018-01-31T17:22:32.032Z,1.60
2018-01-31T17:24:58.253Z,1.80
2018-01-31T17:27:24.454Z,1.40
2018-01-31T17:29:51.459Z,1.87
2018-01-31T17:32:17.647Z,1.50
2018-01-31T17:34:43.831Z,1.93
2018-01-31T17:37:10.040Z,1.67
2018-01-31T17:39:36.263Z,1.40
2018-01-31T17:42:02.482Z,1.93
2018-01-31T17:44:28.686Z,1.50
2018-01-31T17:46:54.912Z,2.33
2018-01-31T17:49:21.096Z,2.07
2018-01-31T17:51:47.308Z,1.87
2018-01-31T17:54:13.492Z,1.80
2018-01-31T17:56:39.759Z,2.27
2018-01-31T17:59:05.939Z,1.33
2018-01-31T18:01:32.899Z,1.73
2018-01-31T18:03:59.085Z,1.50
2018-01-31T18:06:25.304Z,1.77
2018-01-31T18:08:51.491Z,2.10
2018-01-31T18:11:17.707Z,1.50
2018-01-31T18:13:44.738Z,1.53
2018-01-31T18:16:11.699Z,1.60
2018-01-31T18:18:38.627Z,1.93
2018-01-31T18:21:04.849Z,1.87
2018-01-31T18:23:31.036Z,1.63
2018-01-31T18:25:57.407Z,2.03
2018-01-31T18:28:23.591Z,1.67
2018-01-31T18:30:50.059Z,1.47
2018-01-31T18:33:17.410Z,1.87
2018-01-31T18:35:44.403Z,2.07
2018-01-31T18:38:11.327Z,1.57
2018-01-31T18:40:38.448Z,1.50
2018-01-31T18:43:04.632Z,1.90
2018-01-31T18:45:30.871Z,1.87
2018-01-31T18:47:57.142Z,1.47
2018-01-31T18:50:23.332Z,1.70
2018-01-31T18:52:49.548Z,1.60
2018-01-31T18:55:15.784Z,2.17
2018-01-31T18:57:42.199Z,1.13
2018-01-31T19:00:09.186Z,0.83
2018-01-31T19:02:35.431Z,1.20
2018-01-31T19:05:01.636Z,1.20
2018-01-31T19:07:28.171Z,1.20
2018-01-31T19:09:54.480Z,0.90
2018-01-31T19:12:20.757Z,1.00
2018-01-31T19:14:46.996Z,0.80
2018-01-31T19:17:13.218Z,1.10
2018-01-31T19:19:39.467Z,1.20
2018-01-31T19:22:05.735Z,1.27
2018-01-31T19:24:32.011Z,1.13
2018-01-31T19:26:58.251Z,1.20
2018-01-31T19:29:24.436Z,1.10
2018-01-31T19:31:50.717Z,1.10
2018-01-31T19:34:16.944Z,1.30
2018-01-31T19:36:43.165Z,1.40
2018-01-31T19:39:11.231Z,1.20
2018-01-31T19:41:37.478Z,1.00
2018-01-31T19:44:03.739Z,0.80
2018-01-31T19:46:29.999Z,0.80
2018-01-31T19:48:56.220Z,0.80
2018-01-31T19:51:22.403Z,1.00
2018-01-31T19:53:49.619Z,0.90
2018-01-31T19:56:15.808Z,0.80
2018-01-31T19:58:42.058Z,0.80
2018-01-31T20:01:08.300Z,0.63
2018-01-31T20:03:34.649Z,0.90
2018-01-31T20:06:00.836Z,0.80
2018-01-31T20:08:27.211Z,0.60
2018-01-31T20:10:53.476Z,0.70
2018-01-31T20:13:20.510Z,0.90
2018-01-31T20:15:47.454Z,0.80
2018-01-31T20:18:13.886Z,0.93
2018-01-31T20:20:40.075Z,0.80
2018-01-31T20:23:06.337Z,0.67
2018-01-31T20:25:32.592Z,1.03
2018-01-31T20:27:59.560Z,0.70
2018-01-31T20:30:25.760Z,0.77
2018-01-31T20:32:52.807Z,0.80
2018-01-31T20:35:19.735Z,0.77
2018-01-31T20:37:45.953Z,1.30
2018-01-31T20:40:12.190Z,0.90
2018-01-31T20:42:39.207Z,0.80
2018-01-31T20:45:05.390Z,0.80
2018-01-31T20:47:32.325Z,0.70
2018-01-31T20:49:59.303Z,0.70
2018-01-31T20:52:25.649Z,0.83
2018-01-31T20:54:51.919Z,0.70
2018-01-31T20:57:18.145Z,0.60
2018-01-31T20:59:44.446Z,0.70
2018-01-31T21:02:10.682Z,0.70
2018-01-31T21:04:36.896Z,0.90
2018-01-31T21:07:03.131Z,0.87
2018-01-31T21:09:29.349Z,1.23
2018-01-31T21:11:55.537Z,1.30
2018-01-31T21:14:21.825Z,1.40
2018-01-31T21:16:48.770Z,1.17
2018-01-31T21:19:15.030Z,1.33
2018-01-31T21:21:41.219Z,1.30
2018-01-31T21:24:07.764Z,1.50
2018-01-31T21:26:34.000Z,1.47
2018-01-31T21:29:00.336Z,1.60
2018-01-31T21:31:26.565Z,1.37
2018-01-31T21:33:52.831Z,1.50
2018-01-31T21:36:19.139Z,2.03
2018-01-31T21:38:45.355Z,1.30
2018-01-31T21:41:11.545Z,1.30
2018-01-31T21:43:37.807Z,1.80
2018-01-31T21:46:04.043Z,2.13
2018-01-31T21:48:30.310Z,1.60
2018-01-31T21:50:56.584Z,1.40
2018-01-31T21:53:22.805Z,1.43
2018-01-31T21:55:49.030Z,1.30
2018-01-31T21:58:15.219Z,1.03
2018-01-31T22:00:41.479Z,1.30
2018-01-31T22:03:07.668Z,1.30
2018-01-31T22:05:33.986Z,0.90
2018-01-31T22:08:00.167Z,1.57
2018-01-31T22:10:26.384Z,1.20
2018-01-31T22:12:53.307Z,1.10
2018-01-31T22:15:19.552Z,1.33
2018-01-31T22:17:46.516Z,1.53
2018-01-31T22:20:12.748Z,1.10
2018-01-31T22:22:38.931Z,1.20
2018-01-31T22:25:05.158Z,1.50
2018-01-31T22:27:31.413Z,1.30
2018-01-31T22:29:58.339Z,0.90
2018-01-31T22:32:25.300Z,1.80
2018-01-31T22:34:51.530Z,1.50
2018-01-31T22:37:17.747Z,1.50
2018-01-31T22:39:43.944Z,1.00
2018-01-31T22:42:10.151Z,1.37
2018-01-31T22:44:36.378Z,1.50
2018-01-31T22:47:02.916Z,1.40
2018-01-31T22:49:29.116Z,1.37
2018-01-31T22:51:56.100Z,1.53
2018-01-31T22:54:22.320Z,1.20
2018-01-31T22:56:48.508Z,1.50
2018-01-31T22:59:14.715Z,1.93
2018-01-31T23:01:40.895Z,1.60
2018-01-31T23:04:07.112Z,1.70
2018-01-31T23:06:34.040Z,1.50
2018-01-31T23:09:00.260Z,1.70
2018-01-31T23:11:32.578Z,1.70
2018-01-31T23:14:04.880Z,1.80
2018-01-31T23:16:31.064Z,1.30
2018-01-31T23:18:58.284Z,1.40
2018-01-31T23:21:24.488Z,1.83
2018-01-31T23:23:50.676Z,1.80
2018-01-31T23:26:17.703Z,1.60
2018-01-31T23:28:44.628Z,1.60
2018-01-31T23:31:10.840Z,1.57
2018-01-31T23:33:37.024Z,1.97
2018-01-31T23:36:04.028Z,1.80
2018-01-31T23:38:30.244Z,1.90
2018-01-31T23:40:56.496Z,1.50
2018-01-31T23:43:22.728Z,1.50
2018-01-31T23:45:48.943Z,1.23
2018-01-31T23:48:15.131Z,2.00
2018-01-31T23:50:41.344Z,1.87
2018-01-31T23:53:07.527Z,2.03
2018-01-31T23:55:33.768Z,1.73
2018-01-31T23:57:59.959Z,1.63
